Excellent Pescadores — HORK — position and weather

sailwx.info

Track history (hours):
 
Tides and Currents Weather Stations Pressure Air Temp Water Temp Dewpoint Dewpoint Depression Visibility Wind Speed Wind Dir Waves Ship Positions

Excellent Pescadores

Last reported at 2016-Sep-19 02:16 UTC. Time now 2016-Dec-09 23:23 UTC.
Position N 30°46' E 122°55'.
Warning: this ship's position is months out of date.

Length 148 m; draft 8.7 m.

Type: Cargo ship. MMSI: 356291000.

Date/timePositionNaut miles runAvg speedWind from/ knotsBaromVisibWave heightAir tempDewpointWater temp
2016-Sep-19 02:16N 30°46' E 122°55'69 1.6
2016-Sep-17 07:09N 31°19' E 121°44'12 7.6
2016-Sep-17 05:33N 31°22' E 121°30'0 0.1
2016-Sep-17 04:32N 31°22' E 121°30'0 0.0
2016-Sep-17 00:25N 31°22' E 121°30'0 0.0
2016-Sep-16 17:25N 31°22' E 121°30'0 0.0
2016-Sep-16 15:19N 31°22' E 121°30'0 0.0
2016-Sep-16 12:19N 31°22' E 121°30'0 0.0
2016-Sep-16 09:25N 31°22' E 121°30'0 0.0
2016-Sep-16 07:25N 31°22' E 121°30'0 0.0
2016-Sep-16 03:25N 31°22' E 121°30'0 0.0
2016-Sep-16 02:31N 31°22' E 121°30'0 0.0
2016-Sep-16 00:31N 31°22' E 121°30'0 0.0
2016-Sep-15 22:18N 31°22' E 121°30'0 0.1
2016-Sep-15 21:30N 31°22' E 121°30'0 0.0
2016-Sep-15 20:30N 31°22' E 121°30'0 0.0
2016-Sep-15 18:24N 31°22' E 121°30'0 0.0
2016-Sep-15 12:30N 31°22' E 121°30'0 0.0
2016-Sep-15 11:18N 31°22' E 121°30'0 0.0
2016-Sep-15 04:30N 31°22' E 121°30'0 0.1
2016-Sep-15 03:31N 31°22' E 121°30'0 0.0
2016-Sep-15 01:18N 31°22' E 121°30'0 0.0
2016-Sep-14 22:06N 31°22' E 121°30'0 0.0
2016-Sep-14 17:30N 31°22' E 121°30'0 0.0
2016-Sep-14 16:30N 31°22' E 121°30'0 0.0
2016-Sep-14 13:30N 31°22' E 121°30'0 0.0
2016-Sep-14 12:30N 31°22' E 121°30'0 0.0
2016-Sep-14 10:29N 31°22' E 121°30'0 0.1
2016-Sep-14 09:29N 31°22' E 121°30'0 0.1
2016-Sep-14 08:29N 31°22' E 121°30'0 0.0
2016-Sep-14 07:23N 31°22' E 121°30'6 0.5
2016-Sep-13 18:33N 31°23' E 121°37'0 0.2
2016-Sep-13 17:33N 31°23' E 121°37'8 8.2
2016-Sep-13 16:34N 31°27' E 121°29'6 1.2
2016-Sep-13 11:31N 31°30' E 121°23'0 0.0
2016-Sep-13 09:31N 31°30' E 121°23'0 0.0
2016-Sep-13 04:31N 31°30' E 121°23'0 0.0
2016-Sep-13 02:31N 31°30' E 121°23'0 0.0
2016-Sep-12 23:28N 31°30' E 121°23'0 0.0
2016-Sep-12 21:33N 31°30' E 121°23'0 0.0
2016-Sep-12 19:33N 31°30' E 121°23'0 0.0
2016-Sep-12 17:33N 31°30' E 121°23'0 0.0
2016-Sep-12 14:30N 31°30' E 121°23'0 0.0
2016-Sep-12 13:33N 31°30' E 121°23'0 0.0
2016-Sep-12 12:33N 31°30' E 121°23'0 0.0
2016-Sep-12 11:33N 31°30' E 121°23'0 0.0
2016-Sep-12 10:33N 31°30' E 121°23'0 0.0
2016-Sep-12 07:33N 31°30' E 121°23'0 0.0
2016-Sep-12 06:33N 31°30' E 121°23'0 0.0
2016-Sep-12 03:33N 31°30' E 121°23'0 0.0
2016-Sep-12 01:30N 31°30' E 121°23'0 0.0
2016-Sep-11 23:30N 31°30' E 121°23'0 0.0
2016-Sep-11 22:33N 31°30' E 121°23'0 0.0
2016-Sep-11 21:33N 31°30' E 121°23'0 0.0
2016-Sep-11 20:33N 31°30' E 121°23'0 0.0
2016-Sep-11 19:33N 31°30' E 121°23'0 0.0
2016-Sep-11 18:32N 31°30' E 121°23'0 0.0
2016-Sep-11 17:33N 31°30' E 121°23'0 0.0
2016-Sep-11 16:32N 31°30' E 121°23'0 0.0
2016-Sep-11 15:32N 31°30' E 121°23'0 0.0
2016-Sep-11 14:33N 31°30' E 121°23'5 5.3
2016-Sep-11 13:33N 31°27' E 121°28'1110.9
2016-Sep-11 12:32N 31°21' E 121°39'  
2016-Sep-09 08:32N 24°33' E 119°10'  
Track history (hours):
 
Tides and Currents Weather Stations Pressure Air Temp Water Temp Dewpoint Dewpoint Depression Visibility Wind Speed Wind Dir Waves Ship Positions

Excellent Pescadores

Last reported at 2016-Sep-19 02:16 UTC. Time now 2016-Dec-09 23:23 UTC.
Position N 30°46' E 122°55'.
Warning: this ship's position is months out of date.

Length 148 m; draft 8.7 m.

Type: Cargo ship. MMSI: 356291000.

Date/timePositionNaut miles runAvg speedWind from/ knotsBaromVisibWave heightAir tempDewpointWater temp
2016-Sep-19 02:16N 30°46' E 122°55'69 1.6
2016-Sep-17 07:09N 31°19' E 121°44'12 7.6
2016-Sep-17 05:33N 31°22' E 121°30'0 0.1
2016-Sep-17 04:32N 31°22' E 121°30'0 0.0
2016-Sep-17 00:25N 31°22' E 121°30'0 0.0
2016-Sep-16 17:25N 31°22' E 121°30'0 0.0
2016-Sep-16 15:19N 31°22' E 121°30'0 0.0
2016-Sep-16 12:19N 31°22' E 121°30'0 0.0
2016-Sep-16 09:25N 31°22' E 121°30'0 0.0
2016-Sep-16 07:25N 31°22' E 121°30'0 0.0
2016-Sep-16 03:25N 31°22' E 121°30'0 0.0
2016-Sep-16 02:31N 31°22' E 121°30'0 0.0
2016-Sep-16 00:31N 31°22' E 121°30'0 0.0
2016-Sep-15 22:18N 31°22' E 121°30'0 0.1
2016-Sep-15 21:30N 31°22' E 121°30'0 0.0
2016-Sep-15 20:30N 31°22' E 121°30'0 0.0
2016-Sep-15 18:24N 31°22' E 121°30'0 0.0
2016-Sep-15 12:30N 31°22' E 121°30'0 0.0
2016-Sep-15 11:18N 31°22' E 121°30'0 0.0
2016-Sep-15 04:30N 31°22' E 121°30'0 0.1
2016-Sep-15 03:31N 31°22' E 121°30'0 0.0
2016-Sep-15 01:18N 31°22' E 121°30'0 0.0
2016-Sep-14 22:06N 31°22' E 121°30'0 0.0
2016-Sep-14 17:30N 31°22' E 121°30'0 0.0
2016-Sep-14 16:30N 31°22' E 121°30'0 0.0
2016-Sep-14 13:30N 31°22' E 121°30'0 0.0
2016-Sep-14 12:30N 31°22' E 121°30'0 0.0
2016-Sep-14 10:29N 31°22' E 121°30'0 0.1
2016-Sep-14 09:29N 31°22' E 121°30'0 0.1
2016-Sep-14 08:29N 31°22' E 121°30'0 0.0
2016-Sep-14 07:23N 31°22' E 121°30'6 0.5
2016-Sep-13 18:33N 31°23' E 121°37'0 0.2
2016-Sep-13 17:33N 31°23' E 121°37'8 8.2
2016-Sep-13 16:34N 31°27' E 121°29'6 1.2
2016-Sep-13 11:31N 31°30' E 121°23'0 0.0
2016-Sep-13 09:31N 31°30' E 121°23'0 0.0
2016-Sep-13 04:31N 31°30' E 121°23'0 0.0
2016-Sep-13 02:31N 31°30' E 121°23'0 0.0
2016-Sep-12 23:28N 31°30' E 121°23'0 0.0
2016-Sep-12 21:33N 31°30' E 121°23'0 0.0
2016-Sep-12 19:33N 31°30' E 121°23'0 0.0
2016-Sep-12 17:33N 31°30' E 121°23'0 0.0
2016-Sep-12 14:30N 31°30' E 121°23'0 0.0
2016-Sep-12 13:33N 31°30' E 121°23'0 0.0
2016-Sep-12 12:33N 31°30' E 121°23'0 0.0
2016-Sep-12 11:33N 31°30' E 121°23'0 0.0
2016-Sep-12 10:33N 31°30' E 121°23'0 0.0
2016-Sep-12 07:33N 31°30' E 121°23'0 0.0
2016-Sep-12 06:33N 31°30' E 121°23'0 0.0
2016-Sep-12 03:33N 31°30' E 121°23'0 0.0
2016-Sep-12 01:30N 31°30' E 121°23'0 0.0
2016-Sep-11 23:30N 31°30' E 121°23'0 0.0
2016-Sep-11 22:33N 31°30' E 121°23'0 0.0
2016-Sep-11 21:33N 31°30' E 121°23'0 0.0
2016-Sep-11 20:33N 31°30' E 121°23'0 0.0
2016-Sep-11 19:33N 31°30' E 121°23'0 0.0
2016-Sep-11 18:32N 31°30' E 121°23'0 0.0
2016-Sep-11 17:33N 31°30' E 121°23'0 0.0
2016-Sep-11 16:32N 31°30' E 121°23'0 0.0
2016-Sep-11 15:32N 31°30' E 121°23'0 0.0
2016-Sep-11 14:33N 31°30' E 121°23'5 5.3
2016-Sep-11 13:33N 31°27' E 121°28'1110.9
2016-Sep-11 12:32N 31°21' E 121°39'  
2016-Sep-09 08:32N 24°33' E 119°10'  

Dump ship's entire track history